Time;durP1;ratioP1;P1;durP2;ratioP2;P2;SDS_P1;SDS_P2;PMS_P1;PMS_P2;Temp;Humidity;BMP_temperature;BMP_pressure;BME280_temperature;BME280_humidity;BME280_pressure;Samples;Min_cycle;Max_cycle;Signal;HPM_P1;HPM_P2
2023/09/18 00:01:55;;;;;;;62.05;36.38;;;16.50;99.90;;;;;;5057780;28;20425;-77
2023/09/18 00:04:21;;;;;;;60.83;36.53;;;16.30;99.90;;;;;;5017326;28;20425;-77
2023/09/18 00:06:47;;;;;;;67.83;38.77;;;16.20;99.90;;;;;;5033220;28;20510;-77
2023/09/18 00:09:13;;;;;;;66.80;37.45;;;16.80;99.90;;;;;;5033583;28;20512;-77
2023/09/18 00:11:40;;;;;;;63.53;37.78;;;16.60;99.90;;;;;;5085083;28;20413;-77
2023/09/18 00:14:07;;;;;;;67.77;38.87;;;16.50;99.90;;;;;;5068187;28;20764;-77
2023/09/18 00:16:33;;;;;;;70.20;37.97;;;16.70;99.90;;;;;;5034237;28;20471;-77
2023/09/18 00:18:58;;;;;;;66.50;37.73;;;16.80;99.90;;;;;;5033856;28;20417;-77
2023/09/18 00:21:25;;;;;;;65.37;38.90;;;16.50;99.90;;;;;;5034462;28;20425;-77
2023/09/18 00:23:52;;;;;;;66.13;38.65;;;16.70;99.90;;;;;;5093475;28;20916;-77
2023/09/18 00:26:17;;;;;;;60.95;37.08;;;16.80;99.90;;;;;;5046670;28;20815;-77
2023/09/18 00:28:43;;;;;;;66.00;39.13;;;16.40;99.90;;;;;;5057445;28;20413;-79
2023/09/18 00:31:09;;;;;;;64.30;38.03;;;16.60;99.90;;;;;;5052460;28;20792;-79
2023/09/18 00:33:35;;;;;;;65.40;38.50;;;16.70;99.90;;;;;;5019392;28;20454;-80
2023/09/18 00:36:01;;;;;;;64.20;37.13;;;16.80;99.90;;;;;;5055530;28;20429;-80
2023/09/18 00:38:27;;;;;;;65.83;38.50;;;17.00;99.90;;;;;;5052014;28;20405;-79
2023/09/18 00:40:52;;;;;;;71.43;39.03;;;16.60;99.90;;;;;;5012897;28;20495;-79
2023/09/18 00:43:18;;;;;;;66.35;37.42;;;16.60;99.90;;;;;;5031166;28;20429;-79
2023/09/18 00:45:48;;;;;;;57.25;34.58;;;16.70;99.90;;;;;;5031990;28;20759;-79
2023/09/18 00:48:16;;;;;;;48.10;31.77;;;16.80;99.90;;;;;;5035586;28;20420;-79
2023/09/18 00:50:44;;;;;;;47.38;30.75;;;16.80;99.90;;;;;;5035320;28;20476;-79
2023/09/18 00:53:13;;;;;;;43.88;29.30;;;16.80;99.90;;;;;;5033228;28;20399;-79
2023/09/18 00:55:39;;;;;;;38.83;28.13;;;16.70;99.90;;;;;;5033593;28;20409;-79
2023/09/18 00:58:07;;;;;;;34.20;26.08;;;15.90;99.90;;;;;;5063829;28;20417;-79
2023/09/18 01:00:33;;;;;;;37.80;27.00;;;16.40;99.90;;;;;;5000996;28;20754;-79
2023/09/18 01:03:00;;;;;;;36.10;25.47;;;16.50;99.90;;;;;;5006621;28;20443;-79
2023/09/18 01:05:26;;;;;;;34.83;25.15;;;16.60;99.90;;;;;;5021784;28;20421;-80
2023/09/18 01:07:52;;;;;;;34.38;25.73;;;16.40;99.90;;;;;;5034565;28;20968;-79
2023/09/18 01:10:19;;;;;;;33.00;25.60;;;16.50;99.90;;;;;;5016557;28;20479;-79
2023/09/18 01:12:58;;;;;;;40.88;27.88;;;16.70;99.90;;;;;;5034443;28;20441;-79
2023/09/18 01:16:01;;;;;;;37.13;26.02;;;16.70;99.90;;;;;;5034281;28;20402;-79
2023/09/18 01:18:27;;;;;;;33.65;25.35;;;16.50;99.90;;;;;;5017867;28;20415;-79
2023/09/18 01:20:52;;;;;;;36.58;26.00;;;16.20;99.90;;;;;;5020174;28;20417;-79
2023/09/18 01:23:18;;;;;;;38.53;27.17;;;16.30;99.90;;;;;;5038559;28;20436;-79
2023/09/18 01:25:44;;;;;;;33.90;25.50;;;16.40;99.90;;;;;;5005968;28;20423;-79
2023/09/18 01:28:10;;;;;;;32.53;24.47;;;16.50;99.90;;;;;;5049120;28;20428;-79
2023/09/18 01:30:35;;;;;;;44.80;29.83;;;16.60;99.90;;;;;;5034801;28;20413;-79
2023/09/18 01:33:04;;;;;;;44.70;29.20;;;16.50;99.90;;;;;;5017727;28;20900;-79
2023/09/18 01:35:31;;;;;;;47.10;30.52;;;16.40;99.90;;;;;;5013762;28;20423;-79
2023/09/18 01:37:59;;;;;;;39.40;28.17;;;16.40;99.90;;;;;;5048471;28;20421;-79
2023/09/18 01:40:26;;;;;;;36.92;26.80;;;16.50;99.90;;;;;;5036003;28;20784;-79
2023/09/18 01:42:53;;;;;;;39.70;28.27;;;16.40;99.90;;;;;;5053851;28;20422;-79
2023/09/18 01:45:19;;;;;;;40.70;28.17;;;16.60;99.90;;;;;;5014006;28;20461;-79
2023/09/18 01:47:45;;;;;;;43.30;28.55;;;16.40;99.90;;;;;;5050130;28;20428;-79
2023/09/18 01:50:12;;;;;;;51.20;31.75;;;16.20;99.90;;;;;;5049762;28;20912;-79
2023/09/18 01:52:37;;;;;;;47.95;31.48;;;16.30;99.90;;;;;;5038308;28;20487;-79
2023/09/18 01:55:07;;;;;;;53.47;34.47;;;16.30;99.90;;;;;;5061292;28;20492;-79
2023/09/18 01:57:33;;;;;;;55.83;34.42;;;16.50;99.90;;;;;;5059397;28;20417;-79
2023/09/18 01:59:59;;;;;;;56.72;34.55;;;16.30;99.90;;;;;;5018513;28;20837;-79
2023/09/18 02:02:24;;;;;;;56.23;33.87;;;16.10;99.90;;;;;;5037281;28;20407;-79
2023/09/18 02:04:50;;;;;;;53.40;34.27;;;16.50;99.90;;;;;;5048519;28;20422;-79
2023/09/18 02:07:16;;;;;;;52.75;34.72;;;16.30;99.90;;;;;;5046695;28;20628;-79
2023/09/18 02:09:41;;;;;;;51.60;35.22;;;16.80;99.90;;;;;;5030757;28;20470;-80
2023/09/18 02:12:07;;;;;;;48.47;34.17;;;16.40;99.90;;;;;;5030930;28;20421;-80
2023/09/18 02:14:33;;;;;;;46.83;33.80;;;16.20;99.90;;;;;;5004298;28;20416;-79
2023/09/18 02:16:59;;;;;;;52.90;34.70;;;16.50;99.90;;;;;;5049096;28;20417;-79
2023/09/18 02:19:26;;;;;;;47.03;32.65;;;16.50;99.90;;;;;;5032929;28;20459;-79
2023/09/18 02:21:52;;;;;;;47.03;32.65;;;16.70;99.90;;;;;;5031698;28;20503;-79
2023/09/18 02:24:17;;;;;;;46.97;32.65;;;16.70;99.90;;;;;;5041873;28;20424;-79
2023/09/18 02:26:45;;;;;;;47.17;32.95;;;16.70;99.90;;;;;;5035910;28;20404;-79
2023/09/18 02:29:11;;;;;;;46.15;33.15;;;16.70;99.90;;;;;;5031980;28;20809;-79
2023/09/18 02:31:37;;;;;;;44.10;31.90;;;16.60;99.90;;;;;;5015740;28;20421;-80
2023/09/18 02:34:04;;;;;;;43.00;32.13;;;16.90;99.90;;;;;;5020333;28;20411;-80
2023/09/18 02:36:30;;;;;;;45.33;33.05;;;16.90;99.90;;;;;;5019500;28;20427;-80
2023/09/18 02:38:55;;;;;;;43.97;32.70;;;17.00;99.90;;;;;;4994111;28;20545;-76
2023/09/18 02:41:21;;;;;;;48.77;33.57;;;17.00;99.90;;;;;;5048202;28;20905;-77
2023/09/18 02:43:47;;;;;;;43.20;32.50;;;16.80;99.90;;;;;;4993607;28;20874;-80
2023/09/18 02:46:12;;;;;;;44.08;33.35;;;16.80;99.90;;;;;;4992831;28;20751;-80
2023/09/18 02:48:38;;;;;;;43.83;33.63;;;16.90;99.90;;;;;;5043817;28;20493;-80
2023/09/18 02:51:05;;;;;;;43.00;33.13;;;17.00;99.90;;;;;;5041809;28;20517;-80
2023/09/18 02:53:31;;;;;;;45.80;33.25;;;17.00;99.90;;;;;;5040154;28;20428;-80
2023/09/18 02:55:59;;;;;;;42.28;32.78;;;17.10;99.90;;;;;;5049752;28;20424;-80
2023/09/18 02:58:25;;;;;;;43.57;34.13;;;17.10;99.90;;;;;;5030890;28;20423;-79
2023/09/18 03:00:57;;;;;;;42.97;33.28;;;17.10;99.90;;;;;;5081886;28;20908;-80
2023/09/18 03:03:22;;;;;;;42.97;33.58;;;17.30;99.90;;;;;;5054728;28;20441;-80
2023/09/18 03:05:48;;;;;;;48.33;33.70;;;17.30;99.90;;;;;;5044751;28;20507;-80
2023/09/18 03:08:15;;;;;;;45.95;33.80;;;17.20;99.90;;;;;;5037368;28;20786;-80
2023/09/18 03:10:42;;;;;;;42.88;33.45;;;16.90;99.90;;;;;;5049981;28;20791;-80
2023/09/18 03:13:10;;;;;;;40.50;33.67;;;17.20;99.90;;;;;;5046107;28;20452;-80
2023/09/18 03:15:37;;;;;;;44.13;32.63;;;17.20;99.90;;;;;;5051272;28;20418;-80
2023/09/18 03:18:04;;;;;;;45.55;33.92;;;17.10;99.90;;;;;;5053195;28;20444;-80
2023/09/18 03:20:30;;;;;;;42.70;32.90;;;17.30;99.90;;;;;;5054963;28;20501;-80
2023/09/18 03:22:58;;;;;;;40.77;32.27;;;17.20;99.90;;;;;;5052974;28;20939;-80
2023/09/18 03:25:25;;;;;;;42.37;32.80;;;17.40;99.90;;;;;;5040968;28;20457;-80
2023/09/18 03:27:55;;;;;;;46.53;33.38;;;17.60;99.90;;;;;;5059976;28;20407;-80
2023/09/18 03:30:23;;;;;;;38.72;31.48;;;17.40;99.90;;;;;;5034031;28;20504;-80
2023/09/18 03:32:49;;;;;;;40.78;31.75;;;17.40;99.90;;;;;;5043390;28;20419;-80
2023/09/18 03:35:18;;;;;;;42.10;32.20;;;17.40;99.90;;;;;;5040447;28;20423;-80
2023/09/18 03:37:52;;;;;;;41.40;31.63;;;17.50;99.90;;;;;;5022511;28;20403;-80
2023/09/18 03:40:19;;;;;;;37.05;30.50;;;17.30;99.90;;;;;;5038747;28;20766;-80
2023/09/18 03:42:45;;;;;;;38.83;31.67;;;17.20;99.90;;;;;;5075887;28;20418;-80
2023/09/18 03:45:11;;;;;;;39.63;30.55;;;17.20;99.90;;;;;;5060763;28;20535;-80
2023/09/18 03:47:41;;;;;;;35.75;28.65;;;17.40;99.90;;;;;;5019625;28;20489;-80
2023/09/18 03:50:11;;;;;;;34.20;28.83;;;17.50;99.90;;;;;;5042006;28;20404;-80
2023/09/18 03:52:39;;;;;;;33.70;28.05;;;17.70;99.90;;;;;;5037529;28;20419;-80
2023/09/18 03:55:06;;;;;;;33.03;27.23;;;17.70;99.90;;;;;;5029133;28;20423;-80
2023/09/18 03:57:32;;;;;;;30.05;25.50;;;17.50;99.90;;;;;;5053019;28;20421;-80
2023/09/18 03:59:58;;;;;;;34.33;26.87;;;17.70;99.90;;;;;;5036373;28;20815;-80
2023/09/18 04:02:25;;;;;;;29.17;24.88;;;17.30;99.90;;;;;;5038828;28;20428;-79
2023/09/18 04:04:51;;;;;;;28.60;23.88;;;17.50;99.90;;;;;;5066288;28;20456;-80
2023/09/18 04:07:16;;;;;;;26.92;22.30;;;17.60;99.90;;;;;;5051698;28;20454;-80
2023/09/18 04:09:42;;;;;;;27.75;22.88;;;17.70;99.90;;;;;;5027441;28;20445;-80
2023/09/18 04:12:09;;;;;;;27.90;21.60;;;17.50;99.90;;;;;;5016472;28;20430;-80
2023/09/18 04:14:35;;;;;;;24.38;20.48;;;17.80;99.90;;;;;;5011610;28;20421;-80
2023/09/18 04:17:01;;;;;;;25.33;20.80;;;18.00;99.90;;;;;;5070245;28;20509;-80
2023/09/18 04:19:28;;;;;;;25.30;20.58;;;17.70;99.90;;;;;;5036292;28;20422;-80
2023/09/18 04:21:53;;;;;;;25.88;20.98;;;17.90;99.90;;;;;;5035176;28;20516;-80
2023/09/18 04:24:19;;;;;;;23.70;20.50;;;18.00;99.90;;;;;;5038908;28;20618;-80
2023/09/18 04:26:45;;;;;;;24.58;20.17;;;17.70;99.90;;;;;;5039246;28;20403;-80
2023/09/18 04:29:11;;;;;;;23.02;19.67;;;17.70;99.90;;;;;;5021372;28;20424;-79
2023/09/18 04:31:37;;;;;;;23.77;20.05;;;18.00;99.90;;;;;;5076567;28;20773;-80
2023/09/18 04:34:03;;;;;;;21.93;19.23;;;17.90;99.90;;;;;;5022587;28;20504;-80
2023/09/18 04:36:30;;;;;;;24.35;19.70;;;17.90;99.90;;;;;;5033747;28;20426;-79
2023/09/18 04:38:55;;;;;;;25.92;18.90;;;18.00;99.90;;;;;;5037726;28;20409;-79
2023/09/18 04:41:21;;;;;;;23.77;19.58;;;17.80;99.90;;;;;;5035264;28;20422;-79
2023/09/18 04:43:47;;;;;;;23.10;19.65;;;17.90;99.90;;;;;;5051062;28;20421;-79
2023/09/18 04:46:13;;;;;;;23.85;19.30;;;17.60;99.90;;;;;;5021740;28;20441;-79
2023/09/18 04:48:39;;;;;;;21.77;19.47;;;17.90;99.90;;;;;;5038477;28;20423;-79
2023/09/18 04:51:05;;;;;;;24.73;19.00;;;18.00;99.90;;;;;;5032850;28;20464;-79
2023/09/18 04:53:32;;;;;;;21.08;17.92;;;18.00;99.90;;;;;;5032279;28;20423;-77
2023/09/18 04:55:57;;;;;;;21.23;17.73;;;17.80;99.90;;;;;;5034930;28;20463;-78
2023/09/18 04:58:23;;;;;;;21.23;17.13;;;17.80;99.90;;;;;;5034363;28;20429;-78
2023/09/18 05:00:56;;;;;;;20.55;16.80;;;18.00;99.90;;;;;;5031739;28;20431;-78
2023/09/18 05:03:22;;;;;;;19.70;16.30;;;18.10;99.90;;;;;;5017703;28;20416;-78
2023/09/18 05:05:48;;;;;;;20.23;16.27;;;18.20;99.90;;;;;;5052251;28;20809;-78
2023/09/18 05:08:14;;;;;;;21.67;16.30;;;18.30;99.90;;;;;;5035201;28;20453;-78
2023/09/18 05:10:39;;;;;;;19.55;15.10;;;18.10;99.90;;;;;;5032444;28;20421;-78
2023/09/18 05:13:06;;;;;;;16.87;15.07;;;18.30;99.90;;;;;;5017564;28;20456;-78
2023/09/18 05:15:32;;;;;;;19.42;14.77;;;17.90;99.90;;;;;;5067720;28;20405;-78
2023/09/18 05:17:59;;;;;;;17.65;14.40;;;18.10;99.90;;;;;;5018153;28;20789;-78
2023/09/18 05:20:27;;;;;;;18.98;14.63;;;18.10;99.90;;;;;;5036972;28;20417;-78
2023/09/18 05:22:54;;;;;;;17.20;14.18;;;18.10;99.90;;;;;;5020445;28;20459;-78
2023/09/18 05:25:25;;;;;;;19.48;14.27;;;18.20;99.90;;;;;;5036397;28;20441;-78
2023/09/18 05:27:56;;;;;;;23.00;14.10;;;18.20;99.90;;;;;;5017077;28;20914;-78
2023/09/18 05:30:32;;;;;;;17.02;13.60;;;18.30;99.90;;;;;;5026555;28;20429;-78
2023/09/18 05:33:04;;;;;;;20.48;13.90;;;18.40;99.90;;;;;;5026686;28;20449;-78
2023/09/18 05:35:31;;;;;;;15.73;12.77;;;18.10;99.90;;;;;;5040427;28;20446;-80
2023/09/18 05:37:58;;;;;;;17.88;13.57;;;18.20;99.90;;;;;;5021424;28;20484;-80
2023/09/18 05:40:26;;;;;;;16.93;13.33;;;18.10;99.90;;;;;;5003387;28;20448;-79
2023/09/18 05:42:53;;;;;;;17.90;13.82;;;18.20;99.90;;;;;;5047783;28;20432;-79
2023/09/18 05:45:19;;;;;;;17.17;13.68;;;18.30;99.90;;;;;;5033505;28;20785;-79
2023/09/18 05:47:44;;;;;;;15.87;13.77;;;18.40;99.90;;;;;;5015717;28;20423;-79
2023/09/18 05:50:15;;;;;;;18.57;14.10;;;18.40;99.90;;;;;;5015183;28;20429;-79
2023/09/18 05:52:42;;;;;;;21.50;14.32;;;18.40;99.90;;;;;;5033947;28;20490;-79
2023/09/18 05:55:08;;;;;;;17.27;13.68;;;18.40;99.90;;;;;;5033844;28;20421;-79
2023/09/18 05:57:34;;;;;;;18.05;13.68;;;18.20;99.90;;;;;;5017785;28;20425;-79
2023/09/18 06:00:00;;;;;;;19.90;14.15;;;18.60;99.90;;;;;;5041095;28;20426;-79
2023/09/18 06:02:26;;;;;;;18.50;14.20;;;18.20;99.90;;;;;;5040684;28;20537;-79
2023/09/18 06:05:06;;;;;;;26.73;15.50;;;18.20;99.90;;;;;;5040775;28;20426;-79
2023/09/18 06:07:32;;;;;;;17.55;14.25;;;18.30;99.90;;;;;;5041561;28;20425;-79
2023/09/18 06:09:59;;;;;;;17.27;14.45;;;18.50;99.90;;;;;;5073062;28;20425;-79
2023/09/18 06:12:25;;;;;;;20.02;14.02;;;18.10;99.90;;;;;;5022696;28;20428;-79
2023/09/18 06:14:51;;;;;;;19.52;14.70;;;18.40;99.90;;;;;;5020741;28;20417;-79
2023/09/18 06:17:17;;;;;;;18.05;14.85;;;18.20;99.90;;;;;;5044221;28;20428;-79
2023/09/18 06:19:45;;;;;;;20.17;14.57;;;18.40;99.90;;;;;;5017743;28;20420;-79
2023/09/18 06:22:11;;;;;;;18.40;14.90;;;18.40;99.90;;;;;;5033560;28;20523;-79
2023/09/18 06:24:37;;;;;;;18.08;14.50;;;18.30;99.90;;;;;;5032082;28;20421;-79
2023/09/18 06:27:06;;;;;;;19.85;14.77;;;18.50;99.90;;;;;;5038696;28;20444;-79
2023/09/18 06:29:33;;;;;;;20.60;14.15;;;18.30;99.90;;;;;;5054998;28;20905;-81
2023/09/18 06:31:59;;;;;;;18.52;13.88;;;18.40;99.90;;;;;;5032734;28;20908;-79
2023/09/18 06:34:25;;;;;;;17.40;13.77;;;18.50;99.90;;;;;;5040123;28;20426;-79
2023/09/18 06:36:51;;;;;;;26.67;14.35;;;18.50;99.90;;;;;;5080045;28;20427;-79
2023/09/18 06:39:17;;;;;;;19.77;13.95;;;18.80;99.90;;;;;;5041491;28;20441;-80
2023/09/18 06:41:42;;;;;;;20.40;13.63;;;18.40;99.90;;;;;;5012203;28;20435;-80
2023/09/18 06:44:09;;;;;;;18.90;14.30;;;18.60;99.90;;;;;;5048386;28;20988;-80
2023/09/18 06:46:35;;;;;;;22.48;14.40;;;18.80;99.90;;;;;;5023276;28;20431;-81
2023/09/18 06:49:01;;;;;;;19.13;14.75;;;18.60;99.90;;;;;;5043240;28;20417;-81
2023/09/18 06:51:30;;;;;;;21.15;14.43;;;18.70;99.90;;;;;;5074524;28;20411;-81
2023/09/18 06:53:57;;;;;;;23.15;15.05;;;18.60;99.90;;;;;;5023369;28;20438;-80
2023/09/18 06:56:24;;;;;;;19.67;15.63;;;18.70;99.90;;;;;;5026158;28;20439;-80
2023/09/18 06:58:51;;;;;;;21.42;15.27;;;18.80;99.90;;;;;;5039904;28;20905;-81
2023/09/18 07:01:19;;;;;;;19.77;16.20;;;18.80;99.90;;;;;;5021806;28;20476;-79
2023/09/18 07:03:46;;;;;;;20.73;16.40;;;18.70;99.90;;;;;;5034293;28;20512;-81
2023/09/18 07:06:15;;;;;;;23.65;16.67;;;18.80;99.90;;;;;;5022157;28;20468;-81
2023/09/18 07:08:44;;;;;;;23.98;17.75;;;18.80;99.90;;;;;;5022948;28;20420;-81
2023/09/18 07:11:11;;;;;;;27.15;18.27;;;18.70;99.90;;;;;;5019746;28;20478;-80
2023/09/18 07:13:37;;;;;;;23.90;18.10;;;18.80;99.90;;;;;;5021513;28;20457;-80
2023/09/18 07:16:04;;;;;;;25.40;19.42;;;18.80;99.90;;;;;;5006180;28;20421;-81
2023/09/18 07:18:29;;;;;;;29.03;20.03;;;18.90;99.90;;;;;;5003866;28;20399;-80
2023/09/18 07:20:55;;;;;;;27.63;19.83;;;19.00;99.90;;;;;;5054721;28;20405;-80
2023/09/18 07:23:21;;;;;;;28.42;20.70;;;18.70;99.90;;;;;;5036579;28;20892;-80
2023/09/18 07:25:50;;;;;;;28.38;21.10;;;19.70;99.90;;;;;;5030284;28;20398;-80
2023/09/18 07:28:17;;;;;;;28.27;19.45;;;18.70;99.90;;;;;;5069039;28;20425;-80
2023/09/18 07:30:47;;;;;;;29.70;20.55;;;18.70;99.90;;;;;;5037282;28;20397;-80
2023/09/18 07:33:20;;;;;;;32.92;21.95;;;18.70;99.90;;;;;;5036327;28;20425;-79
2023/09/18 07:35:47;;;;;;;34.95;23.58;;;18.70;99.90;;;;;;5020609;28;20499;-82
2023/09/18 07:38:13;;;;;;;35.33;23.50;;;18.50;99.90;;;;;;5033903;28;20479;-81
2023/09/18 07:40:39;;;;;;;36.60;24.95;;;18.60;99.90;;;;;;5052832;28;20508;-81
2023/09/18 07:43:05;;;;;;;34.88;23.65;;;18.40;99.90;;;;;;5064693;28;20952;-81
2023/09/18 07:45:31;;;;;;;41.17;26.10;;;18.60;99.90;;;;;;5020519;28;20917;-81
2023/09/18 07:47:57;;;;;;;34.37;24.20;;;18.40;99.90;;;;;;5028511;28;20932;-82
2023/09/18 07:50:22;;;;;;;36.37;23.97;;;18.50;99.90;;;;;;5041934;28;20421;-82
2023/09/18 07:52:48;;;;;;;35.70;23.75;;;18.70;99.90;;;;;;5034982;28;20913;-81
2023/09/18 07:55:14;;;;;;;35.17;24.63;;;18.60;99.90;;;;;;5029547;28;20425;-79
2023/09/18 07:57:40;;;;;;;34.75;23.85;;;18.50;99.90;;;;;;5028948;28;20870;-79
2023/09/18 08:00:12;;;;;;;33.63;23.13;;;18.50;99.90;;;;;;5003567;28;20461;-79
2023/09/18 08:02:39;;;;;;;31.85;22.58;;;18.40;99.90;;;;;;5012023;28;20425;-80
2023/09/18 08:05:05;;;;;;;34.72;22.08;;;18.70;99.90;;;;;;5043415;28;20761;-79
2023/09/18 08:07:31;;;;;;;30.63;21.25;;;18.60;99.90;;;;;;5029827;28;20445;-79
2023/09/18 08:09:57;;;;;;;30.45;21.45;;;18.40;99.90;;;;;;5015820;28;20440;-79
2023/09/18 08:12:24;;;;;;;30.20;20.27;;;18.40;99.90;;;;;;5013451;28;20612;-79
2023/09/18 08:14:50;;;;;;;28.55;19.95;;;18.60;99.90;;;;;;5041710;28;20984;-78
2023/09/18 08:17:16;;;;;;;27.40;19.40;;;18.50;99.90;;;;;;5033985;28;20421;-79
2023/09/18 08:19:44;;;;;;;27.50;18.92;;;18.50;99.90;;;;;;5008135;28;20506;-79
2023/09/18 08:22:15;;;;;;;27.67;19.33;;;18.50;99.90;;;;;;5026016;28;20415;-79
2023/09/18 08:24:40;;;;;;;25.45;18.55;;;18.70;99.90;;;;;;5059516;28;20415;-78
2023/09/18 08:27:06;;;;;;;28.40;18.95;;;18.50;99.90;;;;;;5019282;28;20420;-79
2023/09/18 08:29:32;;;;;;;26.53;18.97;;;18.60;99.90;;;;;;5018673;28;20757;-78
2023/09/18 08:31:57;;;;;;;25.63;18.60;;;18.80;99.90;;;;;;5050868;28;20426;-79
2023/09/18 08:34:23;;;;;;;27.60;18.98;;;18.70;99.90;;;;;;5035062;28;20405;-78
2023/09/18 08:36:49;;;;;;;25.27;18.73;;;18.70;99.90;;;;;;5068010;28;20421;-78
2023/09/18 08:39:15;;;;;;;26.92;18.30;;;19.00;99.90;;;;;;5032517;28;20998;-78
2023/09/18 08:41:43;;;;;;;24.88;18.90;;;18.70;99.90;;;;;;5016668;28;20445;-78
2023/09/18 08:44:09;;;;;;;27.00;18.60;;;19.10;99.90;;;;;;5028241;28;20430;-79
2023/09/18 08:46:37;;;;;;;25.92;18.92;;;19.00;99.90;;;;;;5054959;28;20830;-80
2023/09/18 08:49:04;;;;;;;26.73;19.45;;;21.00;99.90;;;;;;5066666;28;20514;-78
2023/09/18 08:51:30;;;;;;;26.87;18.90;;;18.90;99.90;;;;;;5011847;28;20896;-77
2023/09/18 08:53:56;;;;;;;30.17;19.13;;;18.80;99.90;;;;;;5044733;28;20911;-79
2023/09/18 08:56:23;;;;;;;22.08;17.52;;;18.90;99.90;;;;;;5033518;28;20426;-79
2023/09/18 08:58:49;;;;;;;26.17;18.52;;;19.30;99.90;;;;;;5032926;28;20510;-79
2023/09/18 09:01:15;;;;;;;26.65;18.30;;;18.90;99.90;;;;;;5030822;28;20511;-80
2023/09/18 09:03:42;;;;;;;23.85;16.92;;;18.90;99.90;;;;;;5011177;28;20845;-80
2023/09/18 09:06:09;;;;;;;26.00;18.30;;;19.10;99.90;;;;;;5018216;28;20417;-79
2023/09/18 09:08:36;;;;;;;25.15;17.15;;;19.20;99.90;;;;;;5074286;28;20411;-79
2023/09/18 09:11:02;;;;;;;24.25;16.45;;;19.20;99.90;;;;;;5047489;28;20417;-79
2023/09/18 09:13:28;;;;;;;21.63;15.87;;;19.10;99.90;;;;;;5035109;28;20504;-79
2023/09/18 09:15:56;;;;;;;19.83;14.70;;;19.10;99.90;;;;;;5033196;28;20975;-79
2023/09/18 09:18:23;;;;;;;19.73;14.82;;;19.30;99.90;;;;;;5054210;28;20974;-79
2023/09/18 09:20:53;;;;;;;19.45;14.40;;;18.90;99.90;;;;;;5016467;28;20771;-79
2023/09/18 09:23:19;;;;;;;19.13;14.73;;;18.90;99.90;;;;;;5032115;28;20799;-79
2023/09/18 09:25:45;;;;;;;21.08;14.80;;;19.10;99.90;;;;;;5017767;28;20482;-79
2023/09/18 09:28:12;;;;;;;17.40;13.50;;;19.50;99.90;;;;;;5016553;28;21451;-78
2023/09/18 09:30:37;;;;;;;19.67;14.20;;;19.30;99.90;;;;;;5029097;28;20497;-79
2023/09/18 09:33:05;;;;;;;16.15;13.60;;;19.80;99.90;;;;;;5016372;28;20461;-79
2023/09/18 09:35:36;;;;;;;18.60;14.18;;;19.30;99.90;;;;;;5021260;28;20779;-78
2023/09/18 09:38:09;;;;;;;18.42;14.25;;;19.60;99.90;;;;;;5039469;28;20493;-79
2023/09/18 09:40:38;;;;;;;18.90;14.57;;;19.40;99.90;;;;;;5034183;28;20488;-79
2023/09/18 09:43:04;;;;;;;18.77;14.70;;;19.60;99.90;;;;;;5011112;28;20421;-79
2023/09/18 09:45:35;;;;;;;20.10;15.07;;;19.40;99.90;;;;;;5041777;28;20432;-79
2023/09/18 09:48:08;;;;;;;18.88;14.98;;;19.50;99.90;;;;;;5014839;28;20421;-79
2023/09/18 09:50:44;;;;;;;20.10;14.98;;;19.70;99.90;;;;;;5031076;28;20447;-79
2023/09/18 09:53:10;;;;;;;20.92;15.27;;;19.70;99.90;;;;;;5054038;28;20492;-79
2023/09/18 09:55:37;;;;;;;19.07;15.70;;;20.00;99.90;;;;;;5025418;28;20542;-79
2023/09/18 09:58:05;;;;;;;19.92;15.68;;;20.20;99.90;;;;;;5046613;28;20447;-79
2023/09/18 10:00:49;;;;;;;19.52;16.15;;;20.00;99.90;;;;;;5031092;28;20422;-80
2023/09/18 10:03:20;;;;;;;21.70;16.55;;;20.10;99.90;;;;;;5013721;28;20502;-79
2023/09/18 10:05:48;;;;;;;19.60;15.98;;;20.50;99.90;;;;;;5030960;28;20516;-79
2023/09/18 10:08:26;;;;;;;20.38;16.70;;;20.50;99.90;;;;;;5019363;28;20419;-79
2023/09/18 10:10:54;;;;;;;22.00;16.33;;;20.60;99.90;;;;;;5012502;28;20403;-79
2023/09/18 10:13:39;;;;;;;17.77;15.40;;;20.50;99.90;;;;;;5029430;28;20421;-79
2023/09/18 10:16:07;;;;;;;19.20;14.70;;;20.50;99.90;;;;;;5031830;28;20417;-80
2023/09/18 10:18:44;;;;;;;16.13;14.43;;;20.60;99.90;;;;;;5015088;28;20419;-79
2023/09/18 10:21:33;;;;;;;15.23;13.55;;;20.70;99.90;;;;;;5049550;28;20916;-80
2023/09/18 10:24:24;;;;;;;15.15;13.55;;;20.80;99.90;;;;;;5064662;28;20429;-80
2023/09/18 10:27:03;;;;;;;14.32;12.40;;;20.90;99.90;;;;;;5035897;28;20506;-79
2023/09/18 10:29:31;;;;;;;13.82;11.75;;;20.90;99.90;;;;;;5066344;28;20425;-80
2023/09/18 10:31:58;;;;;;;13.60;11.90;;;21.00;99.90;;;;;;5007088;28;20421;-80
2023/09/18 10:34:24;;;;;;;13.23;11.10;;;21.20;99.90;;;;;;5019637;28;20515;-80
2023/09/18 10:36:52;;;;;;;14.25;11.38;;;21.30;99.90;;;;;;5018810;28;20920;-80
2023/09/18 10:39:22;;;;;;;12.00;9.95;;;21.60;99.90;;;;;;5019322;28;20424;-80
2023/09/18 10:41:52;;;;;;;12.07;9.70;;;21.70;99.90;;;;;;5069261;28;20417;-80
2023/09/18 10:44:19;;;;;;;12.02;8.90;;;21.50;99.90;;;;;;5068747;28;20429;-80
2023/09/18 10:46:49;;;;;;;10.48;8.40;;;21.60;99.90;;;;;;5034585;28;20456;-79
2023/09/18 10:49:16;;;;;;;10.00;7.63;;;21.90;99.90;;;;;;5049534;28;20415;-79
2023/09/18 10:51:43;;;;;;;11.02;7.40;;;21.50;99.90;;;;;;5032318;28;20413;-78
2023/09/18 10:54:10;;;;;;;11.13;7.30;;;21.60;99.90;;;;;;5034781;28;20416;-79
2023/09/18 10:56:36;;;;;;;8.88;7.32;;;21.70;99.90;;;;;;5066681;28;20421;-79
2023/09/18 10:59:07;;;;;;;8.82;7.00;;;21.60;99.90;;;;;;5032204;28;20425;-78
2023/09/18 11:01:36;;;;;;;9.23;7.10;;;21.50;99.90;;;;;;5062684;28;20971;-79
2023/09/18 11:04:06;;;;;;;8.55;7.00;;;21.60;99.90;;;;;;5018253;28;20471;-79
2023/09/18 11:06:55;;;;;;;8.75;6.30;;;21.70;99.90;;;;;;5035630;28;20932;-79
2023/09/18 11:09:29;;;;;;;8.05;6.65;;;21.30;99.90;;;;;;5049132;28;20515;-80
2023/09/18 11:12:02;;;;;;;10.20;6.77;;;21.20;99.90;;;;;;5050220;28;20453;-80
2023/09/18 11:14:56;;;;;;;8.48;6.20;;;21.20;99.90;;;;;;5026248;28;20417;-79
2023/09/18 11:17:36;;;;;;;8.48;5.78;;;21.30;99.90;;;;;;5031892;28;20503;-79
2023/09/18 11:20:17;;;;;;;8.67;5.90;;;21.80;99.90;;;;;;5022522;28;20424;-78
2023/09/18 11:23:28;;;;;;;9.10;5.57;;;21.80;99.90;;;;;;5016397;28;21348;-80
2023/09/18 11:25:56;;;;;;;8.63;5.78;;;21.80;99.90;;;;;;5031723;28;20505;-79
2023/09/18 11:28:26;;;;;;;8.93;6.18;;;22.80;99.90;;;;;;5019253;28;20429;-78
2023/09/18 11:30:58;;;;;;;7.07;5.45;;;22.40;99.90;;;;;;5022938;28;20428;-79
2023/09/18 11:33:37;;;;;;;8.45;5.60;;;22.50;99.90;;;;;;5021047;28;20426;-79
2023/09/18 11:36:07;;;;;;;7.20;5.68;;;22.70;99.90;;;;;;5043300;28;20471;-80
2023/09/18 11:38:35;;;;;;;7.78;5.68;;;22.30;99.90;;;;;;5014445;28;20421;-80
2023/09/18 11:41:22;;;;;;;8.02;5.50;;;22.90;99.90;;;;;;5036951;28;20783;-80
2023/09/18 11:43:48;;;;;;;7.05;5.13;;;22.70;99.90;;;;;;5034645;28;20425;-79
2023/09/18 11:46:18;;;;;;;6.35;4.82;;;22.40;99.90;;;;;;5055045;28;20424;-80
2023/09/18 11:48:46;;;;;;;6.85;5.10;;;22.90;99.90;;;;;;5055830;28;20459;-80
2023/09/18 11:51:14;;;;;;;8.35;4.82;;;22.30;99.90;;;;;;5033121;28;20444;-79
2023/09/18 11:53:43;;;;;;;8.73;5.00;;;22.80;99.90;;;;;;4999994;28;20417;-79
2023/09/18 11:56:17;;;;;;;8.90;4.70;;;23.20;99.90;;;;;;5033530;28;20421;-80
2023/09/18 11:58:51;;;;;;;8.23;5.50;;;22.90;99.90;;;;;;5001771;28;20442;-80
2023/09/18 12:01:22;;;;;;;6.60;5.10;;;23.00;99.90;;;;;;5062173;28;20586;-80
2023/09/18 12:03:54;;;;;;;7.07;5.10;;;23.00;99.90;;;;;;5047688;28;20432;-80
2023/09/18 12:06:21;;;;;;;7.65;4.88;;;23.00;99.90;;;;;;5080581;28;22755;-79
2023/09/18 12:08:48;;;;;;;6.60;4.30;;;23.20;99.90;;;;;;5047632;28;20464;-80
2023/09/18 12:11:16;;;;;;;9.35;4.82;;;23.50;99.90;;;;;;5029270;28;20493;-81
2023/09/18 12:13:43;;;;;;;6.80;4.60;;;23.20;99.90;;;;;;5029816;28;20422;-82
2023/09/18 12:16:09;;;;;;;5.72;4.30;;;23.20;99.90;;;;;;5047305;28;20532;-82
2023/09/18 12:18:37;;;;;;;5.53;4.20;;;23.30;99.90;;;;;;5048735;28;20420;-81
2023/09/18 12:21:06;;;;;;;7.47;4.53;;;23.60;99.90;;;;;;5079471;28;20455;-81
2023/09/18 12:23:39;;;;;;;7.57;5.00;;;23.60;99.90;;;;;;5029179;28;20427;-82
2023/09/18 12:26:06;;;;;;;5.87;4.50;;;23.50;99.90;;;;;;5048541;28;20447;-81
2023/09/18 12:28:36;;;;;;;7.03;4.57;;;23.30;99.90;;;;;;5037493;28;20418;-80
2023/09/18 12:31:04;;;;;;;7.32;4.65;;;23.10;99.90;;;;;;5046462;28;20507;-81
2023/09/18 12:33:37;;;;;;;5.88;4.30;;;23.00;99.90;;;;;;5051088;28;20427;-81
2023/09/18 12:36:04;;;;;;;6.32;3.90;;;23.50;99.90;;;;;;5044399;28;20505;-82